Time;durP1;ratioP1;P1;durP2;ratioP2;P2;SDS_P1;SDS_P2;PMS_P1;PMS_P2;Temp;Humidity;BMP_temperature;BMP_pressure;BME280_temperature;BME280_humidity;BME280_pressure;Samples;Min_cycle;Max_cycle;Signal;HPM_P1;HPM_P2
2022/12/15 00:42:23;;;;;;;33.67;17.57;;;;;-6.70;100085.00;;;;9747891;30;20203;-76
2022/12/15 00:47:24;;;;;;;27.50;14.53;;;;;-6.70;100110.00;;;;9774767;30;20202;-77
2022/12/15 01:24:36;;;;;;;29.97;15.73;;;;;-7.00;100097.00;;;;9760865;30;20210;-77
2022/12/15 01:29:38;;;;;;;24.07;14.50;;;;;-7.00;100102.00;;;;9764493;30;20236;-76
2022/12/15 01:34:40;;;;;;;32.60;14.90;;;;;-7.00;100093.00;;;;9750742;30;20574;-77
2022/12/15 01:45:21;;;;;;;27.67;14.03;;;;;-7.00;100130.00;;;;9793574;30;20198;-76
2022/12/15 01:50:24;;;;;;;32.40;14.90;;;;;-7.00;100132.00;;;;9729408;30;20638;-77
2022/12/15 01:55:29;;;;;;;24.53;14.07;;;;;-7.00;100132.00;;;;9744629;30;20226;-77
2022/12/15 02:00:32;;;;;;;29.13;14.27;;;;;-7.00;100141.00;;;;9765206;30;20208;-78
2022/12/15 02:05:34;;;;;;;39.03;13.43;;;;;-6.90;100136.00;;;;9769278;30;20208;-78
2022/12/15 02:10:43;;;;;;;26.60;13.50;;;;;-6.80;100140.00;;;;9759256;30;20211;-78
2022/12/15 02:15:58;;;;;;;35.00;14.13;;;;;-6.60;100151.00;;;;9764147;30;20213;-78
2022/12/15 02:21:24;;;;;;;23.37;14.50;;;;;-6.50;100143.00;;;;9763177;30;20205;-78
2022/12/15 02:27:00;;;;;;;23.80;13.83;;;;;-6.30;100142.00;;;;9741087;30;20210;-78
2022/12/15 02:32:12;;;;;;;25.63;14.63;;;;;-6.30;100127.00;;;;9768293;30;20229;-78
2022/12/15 02:37:47;;;;;;;19.23;11.43;;;;;-6.30;100123.00;;;;9755729;30;20300;-78
2022/12/15 02:42:57;;;;;;;28.83;13.23;;;;;-6.30;100137.00;;;;9751669;30;20205;-78
2022/12/15 02:48:09;;;;;;;26.60;11.40;;;;;-6.30;100148.00;;;;9783772;30;20662;-78
2022/12/15 02:53:29;;;;;;;26.70;12.40;;;;;-6.30;100147.00;;;;9772881;30;20210;-78
2022/12/15 02:58:41;;;;;;;32.03;16.03;;;;;-6.30;100144.00;;;;9768724;30;20193;-78
2022/12/15 03:03:44;;;;;;;28.13;15.27;;;;;-6.40;100160.00;;;;9753554;30;20201;-78
2022/12/15 03:08:46;;;;;;;35.37;17.03;;;;;-6.50;100174.00;;;;9733605;30;20206;-78
2022/12/15 03:13:47;;;;;;;26.53;13.33;;;;;-6.70;100166.00;;;;9782468;30;20221;-78
2022/12/15 03:18:51;;;;;;;25.53;12.93;;;;;-6.80;100170.00;;;;9751982;30;20875;-78
2022/12/15 03:23:53;;;;;;;24.80;12.63;;;;;-6.90;100172.00;;;;9731901;30;20210;-78
2022/12/15 03:28:54;;;;;;;25.87;13.17;;;;;-7.00;100164.00;;;;9765468;30;20233;-78
2022/12/15 03:33:56;;;;;;;19.23;12.37;;;;;-7.00;100160.00;;;;9753081;30;20276;-78
2022/12/15 03:38:58;;;;;;;22.80;12.23;;;;;-7.00;100172.00;;;;9718113;30;20218;-78
2022/12/15 03:44:00;;;;;;;20.93;11.00;;;;;-7.00;100161.00;;;;9760538;30;20279;-78
2022/12/15 03:49:02;;;;;;;30.97;13.17;;;;;-7.00;100161.00;;;;9768391;30;20194;-78
2022/12/15 03:54:04;;;;;;;25.47;13.07;;;;;-6.90;100162.00;;;;9741860;30;20229;-78
2022/12/15 03:59:06;;;;;;;21.73;10.80;;;;;-6.70;100165.00;;;;9731023;30;20209;-78
2022/12/15 04:04:08;;;;;;;17.83;10.63;;;;;-6.70;100169.00;;;;9756772;30;20202;-78
2022/12/15 04:09:10;;;;;;;22.97;11.93;;;;;-6.60;100177.00;;;;9752862;30;20212;-78
2022/12/15 04:14:12;;;;;;;25.47;11.50;;;;;-6.70;100179.00;;;;9761487;30;20248;-78
2022/12/15 05:34:01;;;;;;;21.40;10.67;;;;;-6.90;100230.00;;;;9752990;30;20892;-78
2022/12/15 05:39:06;;;;;;;22.93;11.50;;;;;-7.00;100232.00;;;;9767521;30;20689;-78
2022/12/15 05:44:08;;;;;;;26.33;10.93;;;;;-7.10;100227.00;;;;9783969;30;20214;-78
2022/12/15 05:49:13;;;;;;;18.77;10.93;;;;;-7.20;100217.00;;;;9775706;30;20205;-77
2022/12/15 05:54:18;;;;;;;19.37;11.83;;;;;-7.20;100209.00;;;;9766108;30;20244;-78
2022/12/15 05:59:20;;;;;;;18.53;10.10;;;;;-7.20;100217.00;;;;9767864;30;20232;-78
2022/12/15 06:04:22;;;;;;;20.97;10.37;;;;;-7.30;100221.00;;;;9728481;30;20214;-78
2022/12/15 06:09:24;;;;;;;31.70;13.37;;;;;-7.20;100218.00;;;;9750075;30;20214;-78
2022/12/15 06:14:26;;;;;;;19.67;11.20;;;;;-7.20;100214.00;;;;9764393;30;20270;-78
2022/12/15 06:19:28;;;;;;;17.40;9.77;;;;;-7.20;100224.00;;;;9746327;30;20265;-78
2022/12/15 06:24:29;;;;;;;26.60;12.70;;;;;-7.20;100216.00;;;;9756490;30;20698;-78
2022/12/15 06:29:31;;;;;;;23.57;10.07;;;;;-7.20;100219.00;;;;9756145;30;20268;-78
2022/12/15 06:34:33;;;;;;;30.07;12.43;;;;;-7.20;100226.00;;;;9769773;30;20225;-78
2022/12/15 06:39:35;;;;;;;17.10;11.50;;;;;-7.20;100231.00;;;;9784734;30;20637;-78
2022/12/15 06:44:37;;;;;;;20.63;10.60;;;;;-7.20;100234.00;;;;9755490;30;20202;-78
2022/12/15 06:49:39;;;;;;;23.03;9.70;;;;;-7.30;100231.00;;;;9775160;30;20316;-78
2022/12/15 06:54:41;;;;;;;23.57;11.43;;;;;-7.30;100236.00;;;;9785369;30;20225;-78
2022/12/15 06:59:43;;;;;;;24.40;12.87;;;;;-7.30;100235.00;;;;9784479;30;20208;-78
2022/12/15 07:04:44;;;;;;;22.63;12.93;;;;;-7.30;100222.00;;;;9754434;30;20202;-78
2022/12/15 07:09:46;;;;;;;30.43;13.27;;;;;-7.30;100235.00;;;;9755944;30;20285;-78
2022/12/15 07:14:48;;;;;;;24.47;11.20;;;;;-7.30;100244.00;;;;9782852;30;20206;-78
2022/12/15 07:19:54;;;;;;;21.93;12.23;;;;;-7.30;100242.00;;;;9771106;30;20207;-78
2022/12/15 07:24:56;;;;;;;23.23;12.33;;;;;-7.30;100249.00;;;;9743023;30;20209;-78
2022/12/15 07:29:58;;;;;;;25.63;12.87;;;;;-7.30;100237.00;;;;9747287;30;20268;-78
2022/12/15 07:35:04;;;;;;;23.93;11.60;;;;;-7.30;100235.00;;;;9736936;30;20208;-78
2022/12/15 07:40:06;;;;;;;34.07;14.87;;;;;-7.40;100235.00;;;;9767542;30;20198;-79
2022/12/15 07:45:09;;;;;;;28.73;12.27;;;;;-7.40;100243.00;;;;9730292;30;20205;-78
2022/12/15 07:50:11;;;;;;;24.93;12.60;;;;;-7.30;100249.00;;;;9763084;30;20236;-77
2022/12/15 07:55:13;;;;;;;20.20;10.23;;;;;-7.30;100248.00;;;;9734443;30;20225;-79
2022/12/15 08:00:16;;;;;;;21.13;11.70;;;;;-7.20;100245.00;;;;9776805;30;20198;-79
2022/12/15 08:05:18;;;;;;;27.73;14.10;;;;;-7.20;100247.00;;;;9763925;30;20264;-79
2022/12/15 08:10:20;;;;;;;27.40;13.80;;;;;-7.10;100260.00;;;;9766423;30;20647;-79
2022/12/15 08:15:22;;;;;;;28.53;15.77;;;;;-7.00;100270.00;;;;9758601;30;20301;-78
2022/12/15 08:20:24;;;;;;;30.20;16.90;;;;;-6.90;100274.00;;;;9750874;30;20201;-78
2022/12/15 08:25:29;;;;;;;25.27;12.53;;;;;-6.80;100284.00;;;;9748804;30;20202;-79
2022/12/15 08:30:33;;;;;;;30.07;13.53;;;;;-6.60;100288.00;;;;9763920;30;20236;-78
2022/12/15 08:35:38;;;;;;;32.57;15.03;;;;;-6.40;100290.00;;;;9760260;30;20229;-79
2022/12/15 08:41:06;;;;;;;30.07;15.17;;;;;-6.20;100313.00;;;;9750242;30;20198;-78
2022/12/15 08:46:08;;;;;;;25.53;13.73;;;;;-5.90;100315.00;;;;9740486;30;20222;-78
2022/12/15 08:51:10;;;;;;;36.97;16.70;;;;;-5.40;100317.00;;;;9773421;30;20221;-78
2022/12/15 08:56:15;;;;;;;27.57;15.20;;;;;-4.80;100337.00;;;;9764655;30;20206;-78
2022/12/15 09:01:21;;;;;;;39.00;19.20;;;;;-4.20;100335.00;;;;9764402;30;20594;-78
2022/12/15 09:06:27;;;;;;;43.33;19.67;;;;;-3.70;100352.00;;;;9753318;30;20197;-78
2022/12/15 09:11:29;;;;;;;38.93;19.70;;;;;-3.40;100355.00;;;;9762414;30;20226;-78
2022/12/15 09:16:31;;;;;;;46.53;20.63;;;;;-3.00;100357.00;;;;9768494;30;20198;-78
2022/12/15 09:21:33;;;;;;;44.47;21.20;;;;;-2.70;100364.00;;;;9762882;30;20209;-78
2022/12/15 09:26:35;;;;;;;31.07;17.00;;;;;-2.40;100368.00;;;;9752252;30;20256;-78
2022/12/15 09:31:37;;;;;;;31.53;16.33;;;;;-2.10;100371.00;;;;9740075;30;20238;-78
2022/12/15 09:36:39;;;;;;;34.23;17.80;;;;;-1.90;100380.00;;;;9764607;30;20222;-78
2022/12/15 09:41:49;;;;;;;39.77;21.80;;;;;-1.50;100380.00;;;;9752317;30;20202;-78
2022/12/15 09:47:19;;;;;;;52.47;23.87;;;;;-1.30;100401.00;;;;9767670;30;20206;-78
2022/12/15 09:52:26;;;;;;;47.53;24.63;;;;;-0.90;100396.00;;;;9755379;30;20218;-78
2022/12/15 09:57:48;;;;;;;46.77;22.93;;;;;-0.70;100402.00;;;;9749655;30;20691;-78
2022/12/15 10:02:59;;;;;;;46.90;25.60;;;;;-0.40;100398.00;;;;9742061;30;20236;-78
2022/12/15 10:08:02;;;;;;;50.77;26.73;;;;;0.00;100406.00;;;;9738277;30;20201;-78
2022/12/15 10:13:13;;;;;;;55.13;28.70;;;;;0.30;100388.00;;;;9747007;30;20220;-78
2022/12/15 10:18:17;;;;;;;53.60;26.80;;;;;0.60;100387.00;;;;9741602;30;20554;-78
2022/12/15 10:23:19;;;;;;;46.33;26.07;;;;;0.90;100387.00;;;;9799286;30;20256;-77
2022/12/15 10:28:51;;;;;;;43.93;23.10;;;;;1.10;100393.00;;;;9754038;30;20358;-77
2022/12/15 10:34:07;;;;;;;38.20;23.03;;;;;1.10;100401.00;;;;9756605;30;20298;-78
2022/12/15 10:39:08;;;;;;;43.83;24.93;;;;;1.30;100404.00;;;;9756715;30;20205;-78
2022/12/15 10:44:24;;;;;;;43.73;23.47;;;;;1.60;100400.00;;;;9763932;30;20211;-77
2022/12/15 10:49:33;;;;;;;38.27;21.67;;;;;1.70;100408.00;;;;9735742;30;20206;-78
2022/12/15 10:54:42;;;;;;;40.87;20.60;;;;;2.00;100421.00;;;;9780527;30;20222;-78
2022/12/15 10:59:44;;;;;;;39.23;20.83;;;;;2.20;100418.00;;;;9733658;30;20206;-77
2022/12/15 11:05:00;;;;;;;32.93;18.43;;;;;2.30;100415.00;;;;9726944;30;20198;-78
2022/12/15 11:10:12;;;;;;;33.47;17.77;;;;;2.50;100408.00;;;;9721498;30;20240;-78
2022/12/15 11:15:20;;;;;;;33.77;18.17;;;;;2.70;100422.00;;;;9763511;30;20214;-78
2022/12/15 11:20:29;;;;;;;35.40;18.53;;;;;2.90;100417.00;;;;9748021;30;20674;-78
2022/12/15 11:25:32;;;;;;;35.07;19.83;;;;;3.00;100410.00;;;;9735610;30;20186;-78
2022/12/15 11:30:46;;;;;;;35.07;19.57;;;;;3.10;100411.00;;;;9755837;30;20233;-78
2022/12/15 11:36:06;;;;;;;35.13;19.67;;;;;2.60;100410.00;;;;9759689;30;20217;-78
2022/12/15 11:41:24;;;;;;;33.53;21.23;;;;;2.90;100407.00;;;;9778219;30;20210;-78
2022/12/15 11:46:29;;;;;;;37.60;20.37;;;;;3.00;100395.00;;;;9777602;30;20624;-77
2022/12/15 11:51:43;;;;;;;36.70;21.00;;;;;3.20;100392.00;;;;9736192;30;20290;-78
2022/12/15 11:56:57;;;;;;;35.03;21.53;;;;;3.40;100378.00;;;;9747976;30;20630;-78
2022/12/15 12:02:20;;;;;;;36.37;22.63;;;;;3.60;100388.00;;;;9768174;30;20264;-78
2022/12/15 12:07:38;;;;;;;34.67;21.00;;;;;3.80;100381.00;;;;9764312;30;20200;-79
2022/12/15 12:12:52;;;;;;;35.97;21.43;;;;;3.90;100386.00;;;;9741736;30;20674;-78
2022/12/15 12:18:31;;;;;;;29.97;18.23;;;;;4.10;100383.00;;;;9776991;30;20570;-79
2022/12/15 12:23:40;;;;;;;33.30;19.07;;;;;4.20;100387.00;;;;9725893;30;20218;-77
2022/12/15 12:28:49;;;;;;;34.00;20.70;;;;;4.30;100375.00;;;;9762950;30;20233;-78
2022/12/15 12:33:54;;;;;;;38.60;21.40;;;;;4.40;100386.00;;;;9764666;30;20225;-79
2022/12/15 12:38:57;;;;;;;37.57;20.37;;;;;4.60;100371.00;;;;9748982;30;20233;-79
2022/12/15 12:44:07;;;;;;;35.20;18.67;;;;;4.70;100365.00;;;;9769686;30;20419;-79
2022/12/15 12:49:27;;;;;;;32.20;19.67;;;;;4.70;100360.00;;;;9787412;30;20614;-78
2022/12/15 12:54:35;;;;;;;31.63;18.33;;;;;4.80;100347.00;;;;9751775;30;20218;-78
2022/12/15 12:59:57;;;;;;;36.43;19.53;;;;;4.80;100339.00;;;;9770150;30;20212;-77
2022/12/15 13:05:20;;;;;;;29.97;16.93;;;;;4.70;100321.00;;;;9753872;30;20198;-78
2022/12/15 13:10:24;;;;;;;29.23;17.70;;;;;4.60;100325.00;;;;9770791;30;20202;-79
2022/12/15 13:15:26;;;;;;;29.00;16.57;;;;;4.50;100318.00;;;;9765520;30;20228;-78
2022/12/15 13:20:34;;;;;;;32.40;18.33;;;;;4.40;100313.00;;;;9756757;30;20234;-78
2022/12/15 13:25:40;;;;;;;34.20;19.97;;;;;4.30;100306.00;;;;9744420;30;20206;-78
2022/12/15 13:31:10;;;;;;;35.80;21.50;;;;;4.20;100292.00;;;;9752249;30;20230;-77
2022/12/15 13:36:35;;;;;;;32.50;20.17;;;;;3.90;100293.00;;;;9756512;30;20202;-78
2022/12/15 13:42:03;;;;;;;34.70;20.10;;;;;3.60;100294.00;;;;9738467;30;20201;-78
2022/12/15 13:47:28;;;;;;;36.77;19.50;;;;;3.20;100293.00;;;;9750145;30;20276;-77
2022/12/15 13:52:50;;;;;;;31.50;19.40;;;;;3.00;100293.00;;;;9767343;30;20222;-77
2022/12/15 13:58:16;;;;;;;36.10;19.50;;;;;2.70;100281.00;;;;9773060;30;20316;-78
2022/12/15 14:03:18;;;;;;;39.40;21.17;;;;;2.40;100281.00;;;;9762702;30;20688;-78
2022/12/15 14:08:22;;;;;;;39.03;19.83;;;;;2.10;100280.00;;;;9766914;30;20210;-78
2022/12/15 14:13:35;;;;;;;35.00;20.10;;;;;2.00;100272.00;;;;9765494;30;20288;-77
2022/12/15 14:18:38;;;;;;;37.43;20.80;;;;;1.80;100263.00;;;;9758907;30;20290;-77
2022/12/15 14:23:42;;;;;;;37.60;20.70;;;;;1.70;100259.00;;;;9748891;30;20207;-78
2022/12/15 14:29:05;;;;;;;39.50;21.40;;;;;1.50;100257.00;;;;9750995;30;20229;-78
2022/12/15 14:34:23;;;;;;;38.17;20.40;;;;;1.40;100244.00;;;;9756142;30;20290;-78
2022/12/15 14:39:38;;;;;;;34.53;19.30;;;;;1.20;100248.00;;;;9731297;30;20202;-78
2022/12/15 14:44:44;;;;;;;38.97;20.07;;;;;1.00;100240.00;;;;9749762;30;20205;-78
2022/12/15 14:49:54;;;;;;;32.07;19.37;;;;;0.90;100239.00;;;;9737242;30;20202;-78
2022/12/15 14:55:22;;;;;;;34.00;20.00;;;;;0.70;100239.00;;;;9715523;30;20582;-78
2022/12/15 15:00:35;;;;;;;36.33;20.57;;;;;0.50;100234.00;;;;9740342;30;20198;-78
2022/12/15 15:05:39;;;;;;;35.07;19.43;;;;;0.20;100235.00;;;;9759934;30;20202;-78
2022/12/15 15:10:41;;;;;;;36.97;19.53;;;;;0.00;100227.00;;;;9746566;30;20208;-78
2022/12/15 15:16:12;;;;;;;45.97;20.30;;;;;-0.20;100234.00;;;;9775656;30;20257;-77
2022/12/15 15:21:19;;;;;;;38.50;19.63;;;;;-0.40;100234.00;;;;9745566;30;20240;-78
2022/12/15 15:26:24;;;;;;;39.37;20.53;;;;;-0.60;100231.00;;;;9755401;30;20221;-78
2022/12/15 15:31:30;;;;;;;42.70;19.73;;;;;-0.90;100242.00;;;;9738388;30;20249;-77
2022/12/15 15:36:41;;;;;;;37.13;19.77;;;;;-1.10;100247.00;;;;9758688;30;20212;-77
2022/12/15 15:41:42;;;;;;;40.97;19.37;;;;;-1.40;100249.00;;;;9752002;30;20666;-77
2022/12/15 15:46:50;;;;;;;38.43;18.83;;;;;-1.50;100247.00;;;;9750337;30;20212;-77
2022/12/15 15:51:54;;;;;;;38.53;20.50;;;;;-1.60;100253.00;;;;9752435;30;20574;-77
2022/12/15 15:56:56;;;;;;;35.83;19.97;;;;;-1.60;100252.00;;;;9745141;30;20201;-78
2022/12/15 16:01:59;;;;;;;38.30;21.67;;;;;-1.80;100252.00;;;;9763598;30;20197;-78
2022/12/15 16:07:02;;;;;;;52.40;22.53;;;;;-2.00;100261.00;;;;9747500;30;20292;-78
2022/12/15 16:12:05;;;;;;;39.83;21.97;;;;;-2.10;100259.00;;;;9752974;30;20738;-78
2022/12/15 16:17:08;;;;;;;37.07;20.47;;;;;-2.20;100269.00;;;;9742036;30;20338;-77
2022/12/15 16:22:20;;;;;;;43.60;20.53;;;;;-2.30;100279.00;;;;9749626;30;20205;-77
2022/12/15 16:27:21;;;;;;;44.10;20.73;;;;;-2.40;100275.00;;;;9736096;30;20210;-78
2022/12/15 16:32:23;;;;;;;42.63;21.13;;;;;-2.50;100282.00;;;;9751363;30;20762;-78
2022/12/15 16:37:27;;;;;;;36.23;20.63;;;;;-2.60;100280.00;;;;9765593;30;20205;-78
2022/12/15 16:42:29;;;;;;;46.37;25.47;;;;;-2.50;100276.00;;;;9772880;30;20281;-78
2022/12/15 16:47:31;;;;;;;49.10;23.97;;;;;-2.50;100277.00;;;;9770721;30;20197;-78
2022/12/15 16:52:33;;;;;;;39.67;21.60;;;;;-2.50;100285.00;;;;9750301;30;20225;-78
2022/12/15 16:57:34;;;;;;;47.50;22.50;;;;;-2.40;100285.00;;;;9768959;30;20213;-78
2022/12/15 17:02:38;;;;;;;43.73;23.40;;;;;-2.40;100284.00;;;;9779382;30;20192;-77
2022/12/15 17:07:42;;;;;;;55.17;27.93;;;;;-2.30;100292.00;;;;9743875;30;20207;-78
2022/12/15 17:12:44;;;;;;;50.03;25.70;;;;;-2.10;100306.00;;;;9747996;30;20221;-78
2022/12/15 17:17:46;;;;;;;52.43;23.80;;;;;-1.80;100311.00;;;;9772855;30;20214;-78
2022/12/15 17:22:56;;;;;;;51.63;26.20;;;;;-1.60;100323.00;;;;9757816;30;20201;-78
2022/12/15 17:27:59;;;;;;;54.00;25.97;;;;;-1.30;100320.00;;;;9752581;30;20209;-78
2022/12/15 17:33:01;;;;;;;48.77;25.30;;;;;-1.20;100324.00;;;;9785553;30;20265;-78
2022/12/15 17:38:04;;;;;;;45.57;22.43;;;;;-1.00;100331.00;;;;9734635;30;20300;-78
2022/12/15 17:43:12;;;;;;;36.93;19.93;;;;;-0.80;100341.00;;;;9759185;30;20195;-78
2022/12/15 17:48:14;;;;;;;39.07;19.73;;;;;-0.60;100356.00;;;;9759052;30;20237;-78
2022/12/15 17:53:19;;;;;;;41.57;20.67;;;;;-0.60;100349.00;;;;9754273;30;20729;-78
2022/12/15 17:58:25;;;;;;;33.50;18.17;;;;;-0.60;100362.00;;;;9759271;30;20799;-78
2022/12/15 18:03:27;;;;;;;37.47;19.87;;;;;-0.60;100365.00;;;;9743904;30;20264;-78
2022/12/15 18:08:32;;;;;;;31.80;17.10;;;;;-0.50;100365.00;;;;9742842;30;20718;-78
2022/12/15 18:13:34;;;;;;;30.80;17.97;;;;;-0.50;100376.00;;;;9758005;30;20218;-78
2022/12/15 18:18:36;;;;;;;35.47;18.57;;;;;-0.60;100369.00;;;;9754690;30;20260;-78
2022/12/15 18:23:39;;;;;;;27.60;16.67;;;;;-0.70;100372.00;;;;9769085;30;20667;-78
2022/12/15 18:28:40;;;;;;;39.97;19.37;;;;;-0.90;100379.00;;;;9766784;30;20238;-78
2022/12/15 18:33:43;;;;;;;31.87;16.63;;;;;-1.00;100394.00;;;;9795228;30;20205;-78
2022/12/15 18:38:45;;;;;;;34.50;17.13;;;;;-1.00;100397.00;;;;9744668;30;20244;-78
2022/12/15 18:43:47;;;;;;;31.97;16.97;;;;;-1.00;100395.00;;;;9755159;30;20226;-78
2022/12/15 18:48:49;;;;;;;33.47;17.53;;;;;-0.80;100405.00;;;;9773594;30;20213;-78
2022/12/15 18:53:51;;;;;;;30.63;16.80;;;;;-0.80;100406.00;;;;9764098;30;20272;-78
2022/12/15 18:58:53;;;;;;;27.03;15.37;;;;;-0.80;100403.00;;;;9750781;30;20219;-78
2022/12/15 19:03:55;;;;;;;28.67;16.73;;;;;-0.90;100403.00;;;;9750814;30;20198;-78
2022/12/15 19:08:57;;;;;;;32.23;16.97;;;;;-1.00;100410.00;;;;9755564;30;20198;-78
2022/12/15 19:14:01;;;;;;;30.13;17.53;;;;;-1.10;100416.00;;;;9782762;30;20221;-78
2022/12/15 19:29:47;;;;;;;54.30;26.77;;;;;-1.50;100403.00;;;;9766290;30;20237;-78
2022/12/15 19:34:49;;;;;;;66.03;30.50;;;;;-1.70;100397.00;;;;9767573;30;20648;-78
2022/12/15 19:39:51;;;;;;;52.70;25.77;;;;;-2.00;100387.00;;;;9763882;30;20217;-78
2022/12/15 19:44:53;;;;;;;32.20;17.87;;;;;-2.20;100392.00;;;;9767708;30;20202;-78
2022/12/15 19:49:55;;;;;;;33.60;19.87;;;;;-2.30;100398.00;;;;9775569;30;20205;-78
2022/12/15 19:54:57;;;;;;;35.77;17.97;;;;;-2.40;100388.00;;;;9767806;30;20206;-78
2022/12/15 19:59:59;;;;;;;40.20;20.20;;;;;-2.60;100388.00;;;;9782420;30;20651;-78
2022/12/15 20:05:01;;;;;;;34.70;18.00;;;;;-2.70;100393.00;;;;9752420;30;20650;-78
2022/12/15 20:10:11;;;;;;;34.60;18.63;;;;;-2.90;100385.00;;;;9779020;30;20284;-78
2022/12/15 20:15:22;;;;;;;46.67;20.63;;;;;-2.90;100365.00;;;;9765300;30;20212;-78
2022/12/15 20:20:27;;;;;;;43.63;20.67;;;;;-3.00;100368.00;;;;9731446;30;20198;-78
2022/12/15 20:25:33;;;;;;;37.77;19.87;;;;;-3.00;100353.00;;;;9781627;30;20194;-78
2022/12/15 20:30:35;;;;;;;41.03;19.77;;;;;-3.10;100346.00;;;;9746380;30;20233;-78
2022/12/15 20:35:37;;;;;;;34.53;18.03;;;;;-3.10;100343.00;;;;9777214;30;21774;-78
2022/12/15 20:40:39;;;;;;;39.93;21.43;;;;;-3.10;100341.00;;;;9749353;30;20205;-78
2022/12/15 20:45:42;;;;;;;49.17;22.30;;;;;-3.20;100343.00;;;;9778072;30;20203;-78
2022/12/15 20:50:47;;;;;;;43.73;21.83;;;;;-2.90;100348.00;;;;9757439;30;20206;-78
2022/12/15 20:55:51;;;;;;;40.10;19.03;;;;;-2.90;100347.00;;;;9769768;30;20272;-78
2022/12/15 21:00:53;;;;;;;36.87;19.67;;;;;-3.10;100335.00;;;;9739676;30;20218;-78
2022/12/15 21:05:57;;;;;;;32.20;18.47;;;;;-3.20;100318.00;;;;9737868;30;20263;-78
2022/12/15 21:11:09;;;;;;;38.10;17.23;;;;;-3.30;100323.00;;;;9789119;30;20209;-78
2022/12/15 21:16:20;;;;;;;32.37;19.00;;;;;-3.20;100324.00;;;;9774899;30;20538;-78
2022/12/15 21:21:27;;;;;;;37.13;19.30;;;;;-3.20;100321.00;;;;9760259;30;20210;-78
2022/12/15 21:26:29;;;;;;;37.63;19.07;;;;;-3.40;100331.00;;;;9755421;30;20752;-77
2022/12/15 21:31:31;;;;;;;44.27;21.97;;;;;-3.50;100334.00;;;;9768400;30;20225;-77
2022/12/15 21:36:32;;;;;;;43.50;20.77;;;;;-3.60;100341.00;;;;9774751;30;20221;-78
2022/12/15 21:41:34;;;;;;;39.80;21.90;;;;;-3.60;100346.00;;;;9779013;30;20206;-78
2022/12/15 21:46:36;;;;;;;48.63;22.23;;;;;-3.60;100344.00;;;;9756783;30;20210;-78
2022/12/15 21:51:40;;;;;;;52.00;23.73;;;;;-3.60;100347.00;;;;9748421;30;20233;-78
2022/12/15 21:56:44;;;;;;;38.00;22.03;;;;;-3.60;100350.00;;;;9740702;30;20645;-78
2022/12/15 22:01:47;;;;;;;40.10;21.47;;;;;-3.60;100371.00;;;;9767534;30;20208;-78
2022/12/15 22:06:49;;;;;;;46.20;21.97;;;;;-3.60;100361.00;;;;9768528;30;20722;-79
2022/12/15 22:11:54;;;;;;;38.80;18.90;;;;;-3.60;100362.00;;;;9769349;30;20190;-78
2022/12/15 22:16:57;;;;;;;47.47;22.37;;;;;-3.40;100368.00;;;;9746683;30;20294;-78
2022/12/15 22:21:59;;;;;;;47.53;22.50;;;;;-3.30;100377.00;;;;9756205;30;20245;-78
2022/12/15 22:27:01;;;;;;;53.03;24.90;;;;;-3.40;100382.00;;;;9759616;30;20211;-78
2022/12/15 22:32:11;;;;;;;46.23;21.23;;;;;-3.50;100390.00;;;;9771979;30;20236;-78
2022/12/15 22:37:13;;;;;;;41.70;23.13;;;;;-3.60;100393.00;;;;9773631;30;20671;-78
2022/12/15 22:42:16;;;;;;;45.67;22.10;;;;;-3.70;100393.00;;;;9772693;30;20221;-79
2022/12/15 22:47:18;;;;;;;49.33;22.40;;;;;-3.80;100397.00;;;;9761933;30;20199;-78
2022/12/15 22:52:20;;;;;;;36.70;19.13;;;;;-4.00;100405.00;;;;9744823;30;20198;-78
2022/12/15 22:57:25;;;;;;;36.80;17.83;;;;;-3.90;100415.00;;;;9758821;30;20242;-78
2022/12/15 23:02:43;;;;;;;29.93;17.27;;;;;-3.90;100394.00;;;;9772096;30;20210;-78
2022/12/15 23:07:45;;;;;;;38.67;17.50;;;;;-3.80;100403.00;;;;9773960;30;20213;-78
2022/12/15 23:12:53;;;;;;;40.03;19.20;;;;;-3.70;100406.00;;;;9773390;30;20237;-79
2022/12/15 23:17:54;;;;;;;39.63;18.63;;;;;-3.60;100407.00;;;;9775135;30;20781;-78
2022/12/15 23:22:56;;;;;;;33.33;17.73;;;;;-3.40;100409.00;;;;9765439;30;20844;-78
2022/12/15 23:27:58;;;;;;;32.77;17.03;;;;;-3.40;100412.00;;;;9786321;30;20198;-78
2022/12/15 23:33:00;;;;;;;37.60;17.63;;;;;-3.20;100404.00;;;;9754569;30;20697;-78
2022/12/15 23:38:02;;;;;;;38.00;17.03;;;;;-3.10;100413.00;;;;9759332;30;20217;-78
2022/12/15 23:43:04;;;;;;;32.33;16.13;;;;;-2.90;100402.00;;;;9773071;30;20690;-77
2022/12/15 23:48:07;;;;;;;32.00;17.70;;;;;-2.70;100414.00;;;;9756528;30;20296;-78
2022/12/15 23:53:09;;;;;;;34.77;18.63;;;;;-2.60;100417.00;;;;9765266;30;20214;-78
2022/12/15 23:58:11;;;;;;;37.37;17.77;;;;;-2.60;100414.00;;;;9773123;30;20209;-78
